createdAt,value
2022-11-14T00:00:56.598Z,27.73
2022-11-14T00:03:18.100Z,24.43
2022-11-14T00:05:41.310Z,24.17
2022-11-14T00:08:02.507Z,22.87
2022-11-14T00:10:23.762Z,22.13
2022-11-14T00:12:44.806Z,21.67
2022-11-14T00:15:06.321Z,22.10
2022-11-14T00:17:27.389Z,22.67
2022-11-14T00:19:48.595Z,22.83
2022-11-14T00:22:11.524Z,23.03
2022-11-14T00:24:32.622Z,22.53
2022-11-14T00:26:54.016Z,21.90
2022-11-14T00:29:16.215Z,25.13
2022-11-14T00:31:37.261Z,22.40
2022-11-14T00:33:58.663Z,23.50
2022-11-14T00:36:19.928Z,23.30
2022-11-14T00:38:42.861Z,23.80
2022-11-14T00:41:04.399Z,23.37
2022-11-14T00:43:25.390Z,23.00
2022-11-14T00:45:47.246Z,22.73
2022-11-14T00:48:08.399Z,22.17
2022-11-14T00:50:29.831Z,21.53
2022-11-14T00:52:51.086Z,21.93
2022-11-14T00:55:13.823Z,21.87
2022-11-14T00:57:34.942Z,23.60
2022-11-14T00:59:56.565Z,22.23
2022-11-14T01:02:18.180Z,22.07
2022-11-14T01:04:39.814Z,22.47
2022-11-14T01:07:00.981Z,21.53
2022-11-14T01:09:22.899Z,22.40
2022-11-14T01:11:45.622Z,21.20
2022-11-14T01:14:07.577Z,22.43
2022-11-14T01:16:28.824Z,20.60
2022-11-14T01:18:50.209Z,18.53
2022-11-14T01:21:14.058Z,19.17
2022-11-14T01:23:35.322Z,19.93
2022-11-14T01:26:02.141Z,19.27
2022-11-14T01:28:25.182Z,19.60
2022-11-14T01:30:46.359Z,17.17
2022-11-14T01:33:07.802Z,17.37
2022-11-14T01:35:29.082Z,19.20
2022-11-14T01:37:50.049Z,17.03
2022-11-14T01:40:12.178Z,19.00
2022-11-14T01:42:33.565Z,19.17
2022-11-14T01:44:56.253Z,20.57
2022-11-14T01:47:19.988Z,21.60
2022-11-14T01:49:42.526Z,23.27
2022-11-14T01:52:05.442Z,20.60
2022-11-14T01:54:27.962Z,21.07
2022-11-14T01:56:50.644Z,24.13
2022-11-14T01:59:13.443Z,21.10
2022-11-14T02:01:39.501Z,20.10
2022-11-14T02:04:02.623Z,20.47
2022-11-14T02:06:26.986Z,20.77
2022-11-14T02:08:49.420Z,21.47
2022-11-14T02:11:11.220Z,20.23
2022-11-14T02:13:32.475Z,19.90
2022-11-14T02:15:53.657Z,19.67
2022-11-14T02:18:16.471Z,20.17
2022-11-14T02:20:43.155Z,19.40
2022-11-14T02:23:04.538Z,19.33
2022-11-14T02:25:26.127Z,19.10
2022-11-14T02:27:47.226Z,19.00
2022-11-14T02:30:10.695Z,18.80
2022-11-14T02:32:45.014Z,19.93
2022-11-14T02:35:12.858Z,19.00
2022-11-14T02:37:35.627Z,19.80
2022-11-14T02:39:56.921Z,18.13
2022-11-14T02:42:18.420Z,19.80
2022-11-14T02:44:39.954Z,18.53
2022-11-14T02:47:00.997Z,20.83
2022-11-14T02:49:22.253Z,19.47
2022-11-14T02:51:43.615Z,17.50
2022-11-14T02:54:06.401Z,18.27
2022-11-14T02:56:28.226Z,18.30
2022-11-14T02:58:49.928Z,16.57
2022-11-14T03:01:20.179Z,18.83
2022-11-14T03:03:41.566Z,18.40
2022-11-14T03:06:03.980Z,18.90
2022-11-14T03:08:25.183Z,18.00
2022-11-14T03:10:47.607Z,21.27
2022-11-14T03:13:09.057Z,22.53
2022-11-14T03:15:30.214Z,22.10
2022-11-14T03:17:51.663Z,21.43
2022-11-14T03:20:13.122Z,24.27
2022-11-14T03:22:34.078Z,24.40
2022-11-14T03:24:55.600Z,20.60
2022-11-14T03:27:18.256Z,21.60
2022-11-14T03:29:39.519Z,21.77
2022-11-14T03:32:00.639Z,20.27
2022-11-14T03:34:22.071Z,19.20
2022-11-14T03:36:44.070Z,19.17
2022-11-14T03:39:05.747Z,19.63
2022-11-14T03:41:26.796Z,20.40
2022-11-14T03:43:49.573Z,20.10
2022-11-14T03:46:10.647Z,20.40
2022-11-14T03:48:32.800Z,21.53
2022-11-14T03:50:54.613Z,21.97
2022-11-14T03:53:15.579Z,18.63
2022-11-14T03:55:36.765Z,17.73
2022-11-14T03:57:58.476Z,17.83
2022-11-14T04:00:21.544Z,16.10
2022-11-14T04:02:42.689Z,17.50
2022-11-14T04:05:04.050Z,16.93
2022-11-14T04:07:25.617Z,15.63
2022-11-14T04:09:47.287Z,16.60
2022-11-14T04:12:12.823Z,17.83
2022-11-14T04:14:36.747Z,17.73
2022-11-14T04:16:59.915Z,15.90
2022-11-14T04:19:21.055Z,15.90
2022-11-14T04:21:42.405Z,16.37
2022-11-14T04:24:07.168Z,15.63
2022-11-14T04:26:31.990Z,16.90
2022-11-14T04:28:53.310Z,15.20
2022-11-14T04:31:14.430Z,17.03
2022-11-14T04:33:37.090Z,15.57
2022-11-14T04:35:58.372Z,16.87
2022-11-14T04:38:19.685Z,16.47
2022-11-14T04:40:41.096Z,16.03
2022-11-14T04:43:02.544Z,18.13
2022-11-14T04:45:23.618Z,17.50
2022-11-14T04:47:44.944Z,17.47
2022-11-14T04:50:08.219Z,16.10
2022-11-14T04:52:29.639Z,15.63
2022-11-14T04:54:51.170Z,17.77
2022-11-14T04:57:12.777Z,16.30
2022-11-14T04:59:33.875Z,14.60
2022-11-14T05:01:55.434Z,14.97
2022-11-14T05:04:16.956Z,15.83
2022-11-14T05:06:39.558Z,15.00
2022-11-14T05:09:00.675Z,16.30
2022-11-14T05:11:25.317Z,16.00
2022-11-14T05:13:49.870Z,15.83
2022-11-14T05:16:11.628Z,16.20
2022-11-14T05:18:32.980Z,16.17
2022-11-14T05:20:54.367Z,16.00
2022-11-14T05:23:20.450Z,15.00
2022-11-14T05:25:41.735Z,15.47
2022-11-14T05:28:02.936Z,15.80
2022-11-14T05:30:24.123Z,18.97
2022-11-14T05:32:45.762Z,16.60
2022-11-14T05:35:07.723Z,15.90
2022-11-14T05:37:28.973Z,14.53
2022-11-14T05:39:51.712Z,14.60
2022-11-14T05:42:12.932Z,16.70
2022-11-14T05:44:34.166Z,20.17
2022-11-14T05:46:55.715Z,15.60
2022-11-14T05:49:21.752Z,15.70
2022-11-14T05:51:43.231Z,14.37
2022-11-14T05:54:04.612Z,15.33
2022-11-14T05:56:26.979Z,18.10
2022-11-14T05:58:48.355Z,15.03
2022-11-14T06:01:11.137Z,15.97
2022-11-14T06:03:33.223Z,14.27
2022-11-14T06:05:54.570Z,15.87
2022-11-14T06:08:15.828Z,16.87
2022-11-14T06:10:37.381Z,18.63
2022-11-14T06:13:00.090Z,16.03
2022-11-14T06:15:22.019Z,16.50
2022-11-14T06:17:43.574Z,17.00
2022-11-14T06:20:05.298Z,18.03
2022-11-14T06:22:27.001Z,29.27
2022-11-14T06:24:48.303Z,22.77
2022-11-14T06:27:09.501Z,17.10
2022-11-14T06:29:35.469Z,18.67
2022-11-14T06:31:57.253Z,18.27
2022-11-14T06:34:18.591Z,17.13
2022-11-14T06:36:40.374Z,19.60
2022-11-14T06:39:01.586Z,21.93
2022-11-14T06:41:24.141Z,19.20
2022-11-14T06:43:45.686Z,19.47
2022-11-14T06:46:08.983Z,20.20
2022-11-14T06:48:30.688Z,18.23
2022-11-14T06:50:53.308Z,17.97
2022-11-14T06:53:14.615Z,17.87
2022-11-14T06:55:36.513Z,17.10
2022-11-14T06:57:58.031Z,18.20
2022-11-14T07:00:19.543Z,18.43
2022-11-14T07:02:46.760Z,21.27
2022-11-14T07:05:08.289Z,22.37
2022-11-14T07:07:29.558Z,19.90
2022-11-14T07:09:50.939Z,18.43
2022-11-14T07:12:12.139Z,17.40
2022-11-14T07:14:33.424Z,20.37
2022-11-14T07:16:54.739Z,23.43
2022-11-14T07:19:17.326Z,18.37
2022-11-14T07:21:38.787Z,17.63
2022-11-14T07:23:59.701Z,16.73
2022-11-14T07:26:20.891Z,15.40
2022-11-14T07:28:42.882Z,17.43
2022-11-14T07:31:04.246Z,18.33
2022-11-14T07:33:25.448Z,16.53
2022-11-14T07:35:48.074Z,17.30
2022-11-14T07:38:09.134Z,16.63
2022-11-14T07:40:30.499Z,17.27
2022-11-14T07:42:52.322Z,18.67
2022-11-14T07:45:14.119Z,27.77
2022-11-14T07:47:35.365Z,22.80
2022-11-14T07:49:56.684Z,16.13
2022-11-14T07:52:19.078Z,15.13
2022-11-14T07:54:39.979Z,18.00
2022-11-14T07:57:01.620Z,16.47
2022-11-14T07:59:23.138Z,15.17
2022-11-14T08:01:44.175Z,18.77
2022-11-14T08:04:05.639Z,15.80
2022-11-14T08:06:28.576Z,14.93
2022-11-14T08:08:51.084Z,15.10
2022-11-14T08:11:12.755Z,15.33
2022-11-14T08:13:34.235Z,14.97
2022-11-14T08:15:55.642Z,15.23
2022-11-14T08:18:17.230Z,16.37
2022-11-14T08:20:38.555Z,14.03
2022-11-14T08:23:03.741Z,14.27
2022-11-14T08:25:27.033Z,14.90
2022-11-14T08:27:48.452Z,14.57
2022-11-14T08:30:10.672Z,15.83
2022-11-14T08:32:32.643Z,14.20
2022-11-14T08:34:53.768Z,14.50
2022-11-14T08:37:15.359Z,16.60
2022-11-14T08:39:36.479Z,15.33
2022-11-14T08:41:59.348Z,17.07
2022-11-14T08:44:20.633Z,17.23
2022-11-14T08:46:41.777Z,17.20
2022-11-14T08:49:03.027Z,18.83
2022-11-14T08:51:24.323Z,19.40
2022-11-14T08:53:45.577Z,20.63
2022-11-14T08:56:07.074Z,19.90
2022-11-14T08:58:33.501Z,36.30
2022-11-14T09:00:55.171Z,23.00
2022-11-14T09:03:16.863Z,21.87
2022-11-14T09:05:38.146Z,22.90
2022-11-14T09:07:59.653Z,23.43
2022-11-14T09:10:21.093Z,48.60
2022-11-14T09:12:42.412Z,39.80
2022-11-14T09:15:05.690Z,33.50
2022-11-14T09:17:27.162Z,46.97
2022-11-14T09:19:48.429Z,35.03
2022-11-14T09:22:09.494Z,24.63
2022-11-14T09:24:30.714Z,21.93
2022-11-14T09:26:56.641Z,18.23
2022-11-14T09:29:19.012Z,22.40
2022-11-14T09:31:41.769Z,20.17
2022-11-14T09:34:03.280Z,18.23
2022-11-14T09:36:24.489Z,19.07
2022-11-14T09:38:45.873Z,25.90
2022-11-14T09:41:18.854Z,20.17
2022-11-14T09:43:46.073Z,24.70
2022-11-14T09:46:17.085Z,47.80
2022-11-14T09:48:39.558Z,39.87
2022-11-14T09:51:07.208Z,39.90
2022-11-14T09:53:32.453Z,39.67
2022-11-14T09:55:53.749Z,34.23
2022-11-14T09:58:19.519Z,48.90
2022-11-14T10:00:47.045Z,42.80
2022-11-14T10:03:13.955Z,36.03
2022-11-14T10:05:43.243Z,36.83
2022-11-14T10:08:13.478Z,49.17
2022-11-14T10:10:41.909Z,40.17
2022-11-14T10:13:09.816Z,36.03
2022-11-14T10:15:34.177Z,36.63
2022-11-14T10:18:01.172Z,35.90
2022-11-14T10:20:28.194Z,32.13
2022-11-14T10:23:01.553Z,32.57
2022-11-14T10:25:24.839Z,29.30
2022-11-14T10:27:55.878Z,32.83
2022-11-14T10:30:19.511Z,30.93
2022-11-14T10:32:52.239Z,31.20
2022-11-14T10:35:16.567Z,29.83
2022-11-14T10:37:38.865Z,56.83
2022-11-14T10:40:05.913Z,36.23
2022-11-14T10:42:31.611Z,28.77
2022-11-14T10:44:56.103Z,28.07
2022-11-14T10:47:19.447Z,27.53
2022-11-14T10:49:41.779Z,24.17
2022-11-14T10:52:04.837Z,18.87
2022-11-14T10:54:28.162Z,13.70
2022-11-14T10:56:51.745Z,14.87
2022-11-14T10:59:12.973Z,14.43
2022-11-14T11:01:39.601Z,14.27
2022-11-14T11:04:12.272Z,9.50
2022-11-14T11:06:34.224Z,8.00
2022-11-14T11:09:13.017Z,7.30
2022-11-14T11:11:34.135Z,3.67
2022-11-14T11:13:57.763Z,2.90
2022-11-14T11:16:20.897Z,2.47
2022-11-14T11:18:42.248Z,3.03
2022-11-14T11:21:05.458Z,2.10
2022-11-14T11:23:28.526Z,2.40
2022-11-14T11:25:59.405Z,7.17
2022-11-14T11:28:22.266Z,12.23
2022-11-14T11:30:56.411Z,20.37
2022-11-14T11:33:23.430Z,27.50
2022-11-14T11:35:45.641Z,25.47
2022-11-14T11:38:10.095Z,16.97
2022-11-14T11:40:34.527Z,5.90
2022-11-14T11:43:37.508Z,29.57
2022-11-14T11:45:42.331Z,5.73
2022-11-14T11:48:09.280Z,14.00
2022-11-14T11:50:31.147Z,4.90
2022-11-14T11:52:57.987Z,10.03
2022-11-14T11:55:21.671Z,5.77
2022-11-14T11:57:44.533Z,39.63
2022-11-14T12:00:08.155Z,3.57
2022-11-14T12:02:29.553Z,3.40
2022-11-14T12:04:52.920Z,3.70
2022-11-14T12:07:16.283Z,2.47
2022-11-14T12:10:08.643Z,3.30
2022-11-14T12:12:24.410Z,2.00
2022-11-14T12:14:52.149Z,2.50
2022-11-14T12:17:26.205Z,1.93
2022-11-14T12:20:05.169Z,2.60
2022-11-14T12:22:42.372Z,8.17
2022-11-14T12:25:16.713Z,1.90
2022-11-14T12:27:50.465Z,2.20
2022-11-14T12:30:13.552Z,2.23
2022-11-14T12:32:42.818Z,1.90
2022-11-14T12:35:06.760Z,2.20
2022-11-14T12:37:32.812Z,2.53
2022-11-14T12:39:59.749Z,2.87
2022-11-14T12:42:22.190Z,6.83
2022-11-14T12:44:43.220Z,3.03
2022-11-14T12:47:18.819Z,3.10
2022-11-14T12:49:57.814Z,2.00
2022-11-14T12:52:33.791Z,2.00
2022-11-14T12:54:55.367Z,1.70
2022-11-14T12:57:42.987Z,1.47
2022-11-14T13:00:05.657Z,1.80
2022-11-14T13:02:39.312Z,1.60
2022-11-14T13:05:12.757Z,4.60
2022-11-14T13:07:41.226Z,2.60
2022-11-14T13:10:13.128Z,2.30
2022-11-14T13:12:53.828Z,2.40
2022-11-14T13:15:49.240Z,2.50
2022-11-14T13:18:32.479Z,2.40
2022-11-14T13:21:19.839Z,2.03
2022-11-14T13:23:57.198Z,2.00
2022-11-14T13:26:51.959Z,2.40
2022-11-14T13:29:33.926Z,2.30
2022-11-14T13:31:56.818Z,2.43
2022-11-14T13:34:45.276Z,2.30
2022-11-14T13:37:12.183Z,2.80
2022-11-14T13:39:38.320Z,2.67
2022-11-14T13:42:09.504Z,2.30
2022-11-14T13:44:48.956Z,3.47
2022-11-14T13:47:20.291Z,2.37
2022-11-14T13:49:52.420Z,2.10
2022-11-14T13:52:13.994Z,2.53
2022-11-14T13:54:35.001Z,2.13
2022-11-14T13:57:01.113Z,2.60
2022-11-14T13:59:37.643Z,2.93
2022-11-14T14:02:09.131Z,2.50
2022-11-14T14:04:41.082Z,2.90
2022-11-14T14:07:08.661Z,2.70
2022-11-14T14:09:33.781Z,3.00
2022-11-14T14:12:00.079Z,2.87
2022-11-14T14:14:28.966Z,2.70
2022-11-14T14:16:54.695Z,3.03
2022-11-14T14:19:23.020Z,2.73
2022-11-14T14:21:50.671Z,3.40
2022-11-14T14:24:17.722Z,3.20
2022-11-14T14:26:45.572Z,3.27
2022-11-14T14:29:13.876Z,3.00
2022-11-14T14:31:37.042Z,3.10
2022-11-14T14:33:58.284Z,3.10
2022-11-14T14:36:20.738Z,3.20
2022-11-14T14:38:43.323Z,2.47
2022-11-14T14:41:04.396Z,2.27
2022-11-14T14:43:28.337Z,2.20
2022-11-14T14:45:52.638Z,2.23
2022-11-14T14:48:14.442Z,2.30
2022-11-14T14:50:38.260Z,2.30
2022-11-14T14:53:00.227Z,2.37
2022-11-14T14:55:23.863Z,2.20
2022-11-14T14:57:45.179Z,2.40
2022-11-14T15:00:08.181Z,2.20
2022-11-14T15:02:29.264Z,2.33
2022-11-14T15:04:50.560Z,2.40
2022-11-14T15:07:20.870Z,2.30
2022-11-14T15:09:52.061Z,2.37
2022-11-14T15:12:14.811Z,2.40
2022-11-14T15:14:38.290Z,2.20
2022-11-14T15:17:00.063Z,2.07
2022-11-14T15:19:22.703Z,1.90
2022-11-14T15:21:44.086Z,2.20
2022-11-14T15:24:14.259Z,2.00
2022-11-14T15:26:36.036Z,2.00
2022-11-14T15:29:07.842Z,2.33
2022-11-14T15:31:29.000Z,2.10
2022-11-14T15:34:02.041Z,2.10
2022-11-14T15:36:23.114Z,2.30
2022-11-14T15:38:59.476Z,2.07
2022-11-14T15:41:21.843Z,2.10
2022-11-14T15:43:50.521Z,2.27
2022-11-14T15:46:26.617Z,2.17
2022-11-14T15:48:49.138Z,2.10
2022-11-14T15:51:10.437Z,2.20
2022-11-14T15:53:33.181Z,2.23
2022-11-14T15:55:54.788Z,2.27
2022-11-14T15:58:32.166Z,2.37
2022-11-14T16:00:54.824Z,2.27
2022-11-14T16:03:17.960Z,2.40
2022-11-14T16:05:40.557Z,2.57
2022-11-14T16:08:02.216Z,2.30
2022-11-14T16:10:24.407Z,2.53
2022-11-14T16:12:50.981Z,2.10
2022-11-14T16:15:13.306Z,2.53
2022-11-14T16:17:36.063Z,2.43
2022-11-14T16:19:59.518Z,2.60
2022-11-14T16:22:22.194Z,2.60
2022-11-14T16:24:43.331Z,2.40
2022-11-14T16:27:04.679Z,2.97
2022-11-14T16:29:26.597Z,2.50
2022-11-14T16:31:48.506Z,2.50
2022-11-14T16:34:13.656Z,2.30
2022-11-14T16:36:34.790Z,2.30
2022-11-14T16:38:59.475Z,2.80
2022-11-14T16:41:20.836Z,2.83
2022-11-14T16:43:42.196Z,3.03
2022-11-14T16:46:04.337Z,2.60
2022-11-14T16:48:25.467Z,2.60
2022-11-14T16:50:46.652Z,3.00
2022-11-14T16:53:10.058Z,3.03
2022-11-14T16:55:32.774Z,3.20
2022-11-14T16:57:54.098Z,3.07
2022-11-14T17:00:15.433Z,3.10
2022-11-14T17:02:37.001Z,2.80
2022-11-14T17:04:58.698Z,2.60
2022-11-14T17:07:22.872Z,2.80
2022-11-14T17:09:44.457Z,2.93
2022-11-14T17:12:07.579Z,3.00
2022-11-14T17:14:28.793Z,2.90
2022-11-14T17:16:49.774Z,3.07
2022-11-14T17:19:11.042Z,3.03
2022-11-14T17:21:32.742Z,2.80
2022-11-14T17:23:57.387Z,3.10
2022-11-14T17:26:18.875Z,2.93
2022-11-14T17:28:43.152Z,2.47
2022-11-14T17:31:07.223Z,3.17
2022-11-14T17:33:28.957Z,3.03
2022-11-14T17:35:50.702Z,3.20
2022-11-14T17:38:12.300Z,2.80
2022-11-14T17:40:33.511Z,3.20
2022-11-14T17:42:54.681Z,3.30
2022-11-14T17:45:17.868Z,4.90
2022-11-14T17:47:39.252Z,4.03
2022-11-14T17:50:00.530Z,3.40
2022-11-14T17:52:22.477Z,3.50
2022-11-14T17:54:43.793Z,3.30
2022-11-14T17:57:04.935Z,3.20
2022-11-14T17:59:26.492Z,3.27
2022-11-14T18:01:49.305Z,3.03
2022-11-14T18:04:11.989Z,3.60
2022-11-14T18:06:34.343Z,3.27
2022-11-14T18:08:55.545Z,3.50
2022-11-14T18:11:18.785Z,5.53
2022-11-14T18:13:40.438Z,6.10
2022-11-14T18:16:02.229Z,3.70
2022-11-14T18:18:24.927Z,3.57
2022-11-14T18:20:47.007Z,3.47
2022-11-14T18:23:08.578Z,10.03
2022-11-14T18:25:29.838Z,11.43
2022-11-14T18:27:51.180Z,13.47
2022-11-14T18:30:39.833Z,5.97
2022-11-14T18:32:54.746Z,4.50
2022-11-14T18:35:17.598Z,4.80
2022-11-14T18:37:39.137Z,3.87
2022-11-14T18:40:00.424Z,3.30
2022-11-14T18:42:21.882Z,3.37
2022-11-14T18:44:43.472Z,3.27
2022-11-14T18:47:04.631Z,6.83
2022-11-14T18:49:28.253Z,4.07
2022-11-14T18:51:51.031Z,3.60
2022-11-14T18:54:13.248Z,3.80
2022-11-14T18:56:34.476Z,4.90
2022-11-14T18:58:56.993Z,4.73
2022-11-14T19:01:22.041Z,3.90
2022-11-14T19:03:43.373Z,5.37
2022-11-14T19:06:04.811Z,15.67
2022-11-14T19:08:27.544Z,14.97
2022-11-14T19:10:48.922Z,10.03
2022-11-14T19:13:09.982Z,12.27
2022-11-14T19:15:32.264Z,14.07
2022-11-14T19:17:53.762Z,10.73
2022-11-14T19:20:15.473Z,9.10
2022-11-14T19:22:36.915Z,12.33
2022-11-14T19:24:59.843Z,13.07
2022-11-14T19:27:22.206Z,10.87
2022-11-14T19:29:44.697Z,7.03
2022-11-14T19:32:06.069Z,6.77
2022-11-14T19:34:27.810Z,4.43
2022-11-14T19:37:04.779Z,5.67
2022-11-14T19:39:26.083Z,6.40
2022-11-14T19:41:49.035Z,9.87
2022-11-14T19:44:10.276Z,10.37
2022-11-14T19:46:31.685Z,8.97
2022-11-14T19:48:55.836Z,7.53
2022-11-14T19:51:17.988Z,7.80
2022-11-14T19:53:39.731Z,6.97
2022-11-14T19:56:01.704Z,6.93
2022-11-14T19:58:24.295Z,6.83
2022-11-14T20:00:45.506Z,6.90
2022-11-14T20:03:06.901Z,8.40
2022-11-14T20:05:28.303Z,8.37
2022-11-14T20:07:49.703Z,6.90
2022-11-14T20:10:11.339Z,6.03
2022-11-14T20:12:33.166Z,5.00
2022-11-14T20:14:55.818Z,4.90
2022-11-14T20:17:17.531Z,5.20
2022-11-14T20:19:38.632Z,5.10
2022-11-14T20:21:59.783Z,4.73
2022-11-14T20:24:22.547Z,5.17
2022-11-14T20:26:43.791Z,4.60
2022-11-14T20:29:07.245Z,5.07
2022-11-14T20:31:30.561Z,6.90
2022-11-14T20:33:52.823Z,7.67
2022-11-14T20:36:14.915Z,7.27
2022-11-14T20:38:36.626Z,7.10
2022-11-14T20:40:58.366Z,5.73
2022-11-14T20:43:19.829Z,6.73
2022-11-14T20:45:41.741Z,6.17
2022-11-14T20:48:04.502Z,6.50
2022-11-14T20:50:25.901Z,6.43
2022-11-14T20:52:47.626Z,5.13
2022-11-14T20:55:11.944Z,5.87
2022-11-14T20:57:34.980Z,7.27
2022-11-14T20:59:57.062Z,9.40
2022-11-14T21:02:18.770Z,10.37
2022-11-14T21:04:41.738Z,8.00
2022-11-14T21:07:03.595Z,8.90
2022-11-14T21:09:25.393Z,10.43
2022-11-14T21:11:46.797Z,10.37
2022-11-14T21:14:12.172Z,12.97
2022-11-14T21:16:34.475Z,38.07
2022-11-14T21:18:56.845Z,38.73
2022-11-14T21:21:20.258Z,75.30
2022-11-14T21:23:41.684Z,36.83
2022-11-14T21:26:03.831Z,27.93
2022-11-14T21:28:24.676Z,26.90
2022-11-14T21:30:45.952Z,18.33
2022-11-14T21:33:07.474Z,15.30
2022-11-14T21:35:31.578Z,13.10
2022-11-14T21:37:54.122Z,12.97
2022-11-14T21:40:15.329Z,12.97
2022-11-14T21:42:36.370Z,11.17
2022-11-14T21:44:57.782Z,10.93
2022-11-14T21:47:19.067Z,22.77
2022-11-14T21:49:41.904Z,51.57
2022-11-14T21:52:03.322Z,24.53
2022-11-14T21:54:26.096Z,21.93
2022-11-14T21:56:47.428Z,16.90
2022-11-14T21:59:16.370Z,14.50
2022-11-14T22:01:55.934Z,14.00
2022-11-14T22:04:17.124Z,13.70
2022-11-14T22:06:39.196Z,14.80
2022-11-14T22:09:00.695Z,14.27
2022-11-14T22:11:23.543Z,13.87
2022-11-14T22:13:44.525Z,14.77
2022-11-14T22:16:06.558Z,15.43
2022-11-14T22:18:28.345Z,16.53
2022-11-14T22:20:49.156Z,16.73
2022-11-14T22:23:10.672Z,18.17
2022-11-14T22:25:31.985Z,17.87
2022-11-14T22:27:55.417Z,16.83
2022-11-14T22:30:17.095Z,16.23
2022-11-14T22:32:38.278Z,16.80
2022-11-14T22:34:59.651Z,14.07
2022-11-14T22:37:21.079Z,14.13
2022-11-14T22:39:42.313Z,13.70
2022-11-14T22:42:03.660Z,12.83
2022-11-14T22:44:26.674Z,10.97
2022-11-14T22:46:48.080Z,11.23
2022-11-14T22:49:09.218Z,11.77
2022-11-14T22:51:30.857Z,12.20
2022-11-14T22:53:52.897Z,14.20
2022-11-14T22:56:14.131Z,15.80
2022-11-14T22:58:36.138Z,14.77
2022-11-14T23:00:58.560Z,14.57
2022-11-14T23:03:20.758Z,14.03
2022-11-14T23:05:42.037Z,11.97
2022-11-14T23:08:03.558Z,11.57
2022-11-14T23:10:24.848Z,12.10
2022-11-14T23:12:46.851Z,13.30
2022-11-14T23:15:08.295Z,13.00
2022-11-14T23:17:30.651Z,14.67
2022-11-14T23:19:52.256Z,15.27
2022-11-14T23:22:13.380Z,13.17
2022-11-14T23:24:34.550Z,12.27
2022-11-14T23:26:55.803Z,12.43
2022-11-14T23:29:17.010Z,12.30
2022-11-14T23:31:38.439Z,10.80
2022-11-14T23:34:00.696Z,10.93
2022-11-14T23:36:22.167Z,10.70
2022-11-14T23:38:43.837Z,11.17
2022-11-14T23:41:05.028Z,10.53
2022-11-14T23:43:26.662Z,10.40
2022-11-14T23:45:48.393Z,13.20
2022-11-14T23:48:09.468Z,12.43
2022-11-14T23:50:32.199Z,14.77
2022-11-14T23:52:53.843Z,15.07
2022-11-14T23:55:15.390Z,12.13
2022-11-14T23:57:36.678Z,10.70
2022-11-14T23:59:57.898Z,8.73
